createdAt,value
2017-12-19T00:00:49.275Z,2.20
2017-12-19T00:03:18.058Z,2.20
2017-12-19T00:05:46.864Z,2.20
2017-12-19T00:08:14.879Z,2.20
2017-12-19T00:10:43.019Z,2.20
2017-12-19T00:13:11.037Z,2.20
2017-12-19T00:15:39.048Z,2.20
2017-12-19T00:18:07.069Z,2.20
2017-12-19T00:20:35.116Z,2.20
2017-12-19T00:23:03.191Z,2.20
2017-12-19T00:25:31.311Z,2.20
2017-12-19T00:28:00.079Z,2.20
2017-12-19T00:30:28.112Z,2.20
2017-12-19T00:32:56.126Z,2.20
2017-12-19T00:35:24.169Z,2.20
2017-12-19T00:37:52.210Z,2.20
2017-12-19T00:40:20.202Z,2.30
2017-12-19T00:42:48.187Z,2.30
2017-12-19T00:45:16.175Z,2.30
2017-12-19T00:47:44.186Z,2.30
2017-12-19T00:50:12.208Z,2.30
2017-12-19T00:52:40.270Z,2.20
2017-12-19T00:55:08.267Z,2.20
2017-12-19T00:57:37.059Z,2.10
2017-12-19T01:00:05.830Z,2.10
2017-12-19T01:02:33.851Z,2.10
2017-12-19T01:05:01.876Z,2.10
2017-12-19T01:07:29.886Z,2.10
2017-12-19T01:09:57.953Z,2.10
2017-12-19T01:12:25.947Z,2.10
2017-12-19T01:14:53.940Z,2.20
2017-12-19T01:17:21.968Z,2.20
2017-12-19T01:19:50.054Z,2.20
2017-12-19T01:22:18.030Z,2.20
2017-12-19T01:24:46.119Z,2.20
2017-12-19T01:27:14.363Z,2.20
2017-12-19T01:29:42.291Z,2.20
2017-12-19T01:32:10.282Z,2.20
2017-12-19T01:34:39.011Z,2.10
2017-12-19T01:37:07.006Z,2.10
2017-12-19T01:39:34.999Z,2.10
2017-12-19T01:42:04.104Z,2.00
2017-12-19T01:44:32.950Z,2.00
2017-12-19T01:47:00.934Z,2.00
2017-12-19T01:49:28.915Z,2.00
2017-12-19T01:51:57.715Z,1.90
2017-12-19T01:54:26.462Z,1.90
2017-12-19T01:56:54.519Z,1.90
2017-12-19T01:59:22.504Z,1.80
2017-12-19T02:01:50.498Z,1.80
2017-12-19T02:04:18.524Z,1.80
2017-12-19T02:06:46.520Z,1.80
2017-12-19T02:09:14.532Z,1.80
2017-12-19T02:11:43.266Z,1.80
2017-12-19T02:14:11.283Z,1.70
2017-12-19T02:16:42.082Z,1.80
2017-12-19T02:19:10.188Z,1.80
2017-12-19T02:21:39.038Z,2.00
2017-12-19T02:24:07.122Z,2.00
2017-12-19T02:26:35.227Z,2.10
2017-12-19T02:29:04.093Z,2.10
2017-12-19T02:31:32.170Z,2.10
2017-12-19T02:34:00.279Z,2.00
2017-12-19T02:36:28.344Z,2.00
2017-12-19T02:38:56.418Z,2.00
2017-12-19T02:41:24.490Z,2.00
2017-12-19T02:43:52.567Z,2.00
2017-12-19T02:46:20.633Z,2.00
2017-12-19T02:48:48.726Z,2.00
2017-12-19T02:51:16.795Z,2.00
2017-12-19T02:53:44.883Z,2.00
2017-12-19T02:56:12.963Z,1.90
2017-12-19T02:58:40.998Z,1.80
2017-12-19T03:01:09.028Z,1.80
2017-12-19T03:03:37.341Z,1.80
2017-12-19T03:06:05.431Z,1.80
2017-12-19T03:08:33.519Z,1.80
2017-12-19T03:11:01.595Z,1.80
2017-12-19T03:13:29.675Z,1.90
2017-12-19T03:15:57.732Z,2.00
2017-12-19T03:18:25.808Z,2.00
2017-12-19T03:20:53.893Z,2.00
2017-12-19T03:23:22.021Z,2.10
2017-12-19T03:25:50.122Z,2.10
2017-12-19T03:28:18.235Z,2.20
2017-12-19T03:30:47.096Z,2.00
2017-12-19T03:33:15.179Z,2.00
2017-12-19T03:35:43.247Z,1.90
2017-12-19T03:38:11.350Z,1.90
2017-12-19T03:40:40.834Z,1.80
2017-12-19T03:43:08.901Z,1.80
2017-12-19T03:45:36.955Z,1.70
2017-12-19T03:48:05.942Z,1.70
2017-12-19T03:50:34.282Z,1.60
2017-12-19T03:53:02.882Z,1.50
2017-12-19T03:55:30.971Z,1.50
2017-12-19T03:57:59.570Z,1.40
2017-12-19T04:00:28.057Z,1.40
2017-12-19T04:02:56.230Z,1.40
2017-12-19T04:05:25.138Z,1.40
2017-12-19T04:07:53.838Z,1.40
2017-12-19T04:10:22.685Z,1.40
2017-12-19T04:12:50.774Z,1.40
2017-12-19T04:15:18.843Z,1.40
2017-12-19T04:17:46.928Z,1.40
2017-12-19T04:20:15.588Z,1.40
2017-12-19T04:22:44.423Z,1.30
2017-12-19T04:25:13.250Z,1.30
2017-12-19T04:27:41.344Z,1.30
2017-12-19T04:30:09.372Z,1.30
2017-12-19T04:32:37.430Z,1.30
2017-12-19T04:35:06.278Z,1.30
2017-12-19T04:37:34.312Z,1.30
2017-12-19T04:40:02.399Z,1.40
2017-12-19T04:42:30.462Z,1.40
2017-12-19T04:44:58.450Z,1.40
2017-12-19T04:47:26.570Z,1.30
2017-12-19T04:49:55.987Z,1.30
2017-12-19T04:52:24.049Z,1.20
2017-12-19T04:54:52.880Z,1.30
2017-12-19T04:57:21.257Z,1.20
2017-12-19T04:59:49.393Z,1.20
2017-12-19T05:02:18.210Z,1.20
2017-12-19T05:04:46.788Z,1.20
2017-12-19T05:07:14.899Z,1.20
2017-12-19T05:09:43.434Z,1.20
2017-12-19T05:12:11.549Z,1.20
2017-12-19T05:14:39.651Z,1.20
2017-12-19T05:17:07.773Z,1.10
2017-12-19T05:19:35.950Z,1.20
2017-12-19T05:22:04.099Z,1.20
2017-12-19T05:24:32.203Z,1.20
2017-12-19T05:27:00.299Z,1.20
2017-12-19T05:29:28.658Z,1.10
2017-12-19T05:31:56.744Z,1.20
2017-12-19T05:34:24.837Z,1.20
2017-12-19T05:36:52.950Z,1.20
2017-12-19T05:39:21.055Z,1.20
2017-12-19T05:41:49.130Z,1.20
2017-12-19T05:44:17.270Z,1.30
2017-12-19T05:46:45.327Z,1.20
2017-12-19T05:49:13.426Z,1.20
2017-12-19T05:51:41.597Z,1.20
2017-12-19T05:54:09.700Z,1.30
2017-12-19T05:56:38.381Z,1.30
2017-12-19T05:59:06.458Z,1.20
2017-12-19T06:01:35.394Z,1.30
2017-12-19T06:04:03.994Z,1.30
2017-12-19T06:06:32.918Z,1.40
2017-12-19T06:09:01.777Z,1.40
2017-12-19T06:11:30.731Z,1.40
2017-12-19T06:14:00.406Z,1.40
2017-12-19T06:16:28.510Z,1.40
2017-12-19T06:18:57.373Z,1.40
2017-12-19T06:21:26.270Z,1.30
2017-12-19T06:23:54.770Z,1.40
2017-12-19T06:26:23.542Z,1.50
2017-12-19T06:28:51.588Z,1.60
2017-12-19T06:31:19.627Z,1.70
2017-12-19T06:33:47.743Z,1.70
2017-12-19T06:36:15.840Z,1.80
2017-12-19T06:38:43.910Z,1.90
2017-12-19T06:41:12.894Z,1.90
2017-12-19T06:43:40.943Z,1.90
2017-12-19T06:46:09.032Z,1.90
2017-12-19T06:48:37.323Z,1.90
2017-12-19T06:51:05.441Z,2.00
2017-12-19T06:53:33.459Z,2.00
2017-12-19T06:56:01.615Z,2.10
2017-12-19T06:58:29.696Z,2.10
2017-12-19T07:00:57.830Z,2.20
2017-12-19T07:03:25.878Z,2.20
2017-12-19T07:05:55.628Z,2.10
2017-12-19T07:08:23.762Z,2.10
2017-12-19T07:10:52.595Z,2.00
2017-12-19T07:13:20.639Z,2.00
2017-12-19T07:15:48.738Z,2.00
2017-12-19T07:18:16.790Z,2.00
2017-12-19T07:20:44.834Z,2.00
2017-12-19T07:23:13.675Z,2.30
2017-12-19T07:25:41.748Z,2.20
2017-12-19T07:28:09.778Z,2.40
2017-12-19T07:30:38.619Z,3.00
2017-12-19T07:33:06.698Z,2.90
2017-12-19T07:35:34.740Z,3.20
2017-12-19T07:38:03.587Z,3.40
2017-12-19T07:40:33.374Z,3.80
2017-12-19T07:43:01.470Z,3.80
2017-12-19T07:45:30.339Z,4.30
2017-12-19T07:47:59.251Z,4.30
2017-12-19T07:50:28.406Z,4.60
2017-12-19T07:52:56.461Z,4.50
2017-12-19T07:55:24.454Z,4.70
2017-12-19T07:57:53.567Z,4.80
2017-12-19T08:00:21.559Z,5.00
2017-12-19T08:02:50.368Z,5.40
2017-12-19T08:05:18.388Z,5.30
2017-12-19T08:07:47.330Z,5.60
2017-12-19T08:10:15.482Z,5.70
2017-12-19T08:12:45.218Z,5.70
2017-12-19T08:15:13.624Z,5.70
2017-12-19T08:17:41.825Z,5.80
2017-12-19T08:20:10.722Z,5.80
2017-12-19T08:22:38.719Z,5.80
2017-12-19T08:25:07.503Z,5.80
2017-12-19T08:27:36.358Z,5.90
2017-12-19T08:30:05.281Z,5.90
2017-12-19T08:32:34.047Z,5.90
2017-12-19T08:35:02.035Z,5.90
2017-12-19T08:37:30.816Z,6.10
2017-12-19T08:39:58.780Z,6.10
2017-12-19T08:42:26.783Z,6.20
2017-12-19T08:44:54.782Z,6.40
2017-12-19T08:47:22.779Z,6.50
2017-12-19T08:49:50.802Z,6.60
2017-12-19T08:52:18.924Z,6.70
2017-12-19T08:54:46.934Z,6.70
2017-12-19T08:57:17.278Z,6.70
2017-12-19T08:59:47.184Z,6.80
2017-12-19T09:05:07.382Z,7.00
2017-12-19T09:07:35.610Z,7.00
2017-12-19T09:10:04.555Z,7.00
2017-12-19T09:15:20.081Z,7.00
2017-12-19T09:17:50.414Z,7.20
2017-12-19T09:20:27.188Z,7.40
2017-12-19T09:23:01.868Z,7.60
2017-12-19T09:25:32.780Z,7.90
2017-12-19T09:28:07.889Z,8.10
2017-12-19T09:30:39.653Z,8.10
2017-12-19T09:33:11.661Z,8.20
2017-12-19T09:35:43.314Z,8.30
2017-12-19T09:41:36.080Z,8.40
2017-12-19T09:44:11.630Z,8.40
2017-12-19T09:46:43.768Z,8.50
2017-12-19T09:49:19.483Z,8.60
2017-12-19T09:51:50.999Z,8.70
2017-12-19T09:54:22.562Z,8.80
2017-12-19T09:56:56.762Z,8.90
2017-12-19T09:59:28.914Z,9.00
2017-12-19T10:02:00.817Z,9.10
2017-12-19T10:04:34.347Z,9.40
2017-12-19T10:07:06.210Z,9.40
2017-12-19T10:09:38.272Z,9.50
2017-12-19T10:12:13.972Z,9.60
2017-12-19T10:14:54.848Z,9.70
2017-12-19T10:20:05.990Z,10.00
2017-12-19T10:25:37.926Z,10.30
2017-12-19T10:28:09.870Z,10.40
2017-12-19T10:30:41.897Z,10.40
2017-12-19T10:33:14.747Z,10.60
2017-12-19T10:35:48.188Z,10.90
2017-12-19T10:38:20.378Z,10.90
2017-12-19T10:40:52.594Z,11.10
2017-12-19T10:43:23.232Z,11.10
2017-12-19T10:45:54.697Z,11.20
2017-12-19T10:48:27.293Z,11.30
2017-12-19T10:51:04.827Z,11.30
2017-12-19T10:53:35.890Z,11.40
2017-12-19T10:56:07.101Z,11.50
2017-12-19T10:58:38.989Z,11.60
2017-12-19T11:03:46.529Z,11.80
2017-12-19T11:06:19.350Z,11.80
2017-12-19T11:08:50.558Z,11.80
2017-12-19T11:13:58.800Z,11.80
2017-12-19T11:19:10.370Z,11.80
2017-12-19T11:21:48.536Z,11.90
2017-12-19T11:24:31.185Z,11.80
2017-12-19T11:27:04.571Z,11.90
2017-12-19T11:29:44.987Z,11.90
2017-12-19T11:32:13.283Z,11.90
2017-12-19T11:34:41.414Z,11.90
2017-12-19T11:37:09.531Z,11.90
2017-12-19T11:39:37.627Z,12.00
2017-12-19T11:42:06.463Z,12.00
2017-12-19T11:44:39.303Z,12.00
2017-12-19T11:47:15.351Z,12.00
2017-12-19T11:52:32.177Z,12.00
2017-12-19T11:55:04.697Z,12.00
2017-12-19T11:57:32.805Z,11.90
2017-12-19T12:00:00.834Z,11.90
2017-12-19T12:02:28.891Z,11.90
2017-12-19T12:04:56.902Z,11.90
2017-12-19T12:07:24.945Z,11.90
2017-12-19T12:09:52.963Z,11.90
2017-12-19T12:12:21.007Z,11.90
2017-12-19T12:14:49.001Z,11.90
2017-12-19T12:17:17.035Z,11.90
2017-12-19T12:19:45.039Z,11.80
2017-12-19T12:22:13.073Z,11.80
2017-12-19T12:24:41.092Z,11.80
2017-12-19T12:27:09.139Z,11.80
2017-12-19T12:29:37.146Z,11.80
2017-12-19T12:32:05.934Z,11.70
2017-12-19T12:34:34.734Z,11.70
2017-12-19T12:37:03.550Z,11.60
2017-12-19T12:39:31.557Z,11.60
2017-12-19T12:41:59.563Z,11.50
2017-12-19T12:44:28.359Z,11.40
2017-12-19T12:46:56.418Z,11.40
2017-12-19T12:49:25.219Z,11.30
2017-12-19T12:51:53.231Z,11.30
2017-12-19T12:54:21.251Z,11.30
2017-12-19T12:56:49.983Z,11.10
2017-12-19T12:59:18.070Z,11.10
2017-12-19T13:01:46.182Z,11.10
2017-12-19T13:04:15.006Z,11.00
2017-12-19T13:06:43.075Z,11.00
2017-12-19T13:09:11.075Z,11.00
2017-12-19T13:11:39.221Z,11.00
2017-12-19T13:14:07.292Z,10.90
2017-12-19T13:16:35.850Z,10.90
2017-12-19T13:19:03.850Z,10.90
2017-12-19T13:21:31.890Z,10.80
2017-12-19T13:23:59.882Z,10.80
2017-12-19T13:26:27.862Z,10.80
2017-12-19T13:28:55.889Z,10.70
2017-12-19T13:31:24.624Z,10.70
2017-12-19T13:33:52.607Z,10.70
2017-12-19T13:36:20.607Z,10.60
2017-12-19T13:38:49.377Z,10.60
2017-12-19T13:41:17.391Z,10.60
2017-12-19T13:43:45.410Z,10.60
2017-12-19T13:46:13.404Z,10.50
2017-12-19T13:48:42.188Z,10.50
2017-12-19T13:51:10.207Z,10.50
2017-12-19T13:53:38.222Z,10.50
2017-12-19T13:56:06.222Z,10.40
2017-12-19T13:58:35.068Z,10.30
2017-12-19T14:01:03.071Z,10.30
2017-12-19T14:03:31.870Z,10.30
2017-12-19T14:05:59.899Z,10.30
2017-12-19T14:08:27.888Z,10.20
2017-12-19T14:10:55.917Z,10.20
2017-12-19T14:13:23.948Z,10.20
2017-12-19T14:15:52.735Z,10.20
2017-12-19T14:18:21.514Z,10.10
2017-12-19T14:20:50.296Z,10.10
2017-12-19T14:23:18.368Z,10.10
2017-12-19T14:25:46.394Z,10.00
2017-12-19T14:28:14.439Z,10.00
2017-12-19T14:30:42.450Z,10.00
2017-12-19T14:33:10.461Z,9.90
2017-12-19T14:35:39.241Z,9.80
2017-12-19T14:38:08.009Z,9.80
2017-12-19T14:40:35.992Z,9.80
2017-12-19T14:43:03.979Z,9.80
2017-12-19T14:45:32.766Z,9.70
2017-12-19T14:48:01.625Z,9.70
2017-12-19T14:50:29.654Z,9.70
2017-12-19T14:52:57.670Z,9.70
2017-12-19T14:55:25.803Z,9.70
2017-12-19T14:57:53.803Z,9.70
2017-12-19T15:00:21.855Z,9.70
2017-12-19T15:02:49.919Z,9.60
2017-12-19T15:05:17.918Z,9.60
2017-12-19T15:07:45.932Z,9.60
2017-12-19T15:10:14.735Z,9.50
2017-12-19T15:12:42.714Z,9.50
2017-12-19T15:15:10.720Z,9.40
2017-12-19T15:17:38.760Z,9.40
2017-12-19T15:20:06.763Z,9.40
2017-12-19T15:22:34.754Z,9.30
2017-12-19T15:25:02.754Z,9.30
2017-12-19T15:27:30.732Z,9.20
2017-12-19T15:29:58.733Z,9.20
2017-12-19T15:32:26.725Z,9.10
2017-12-19T15:34:54.698Z,9.10
2017-12-19T15:37:22.722Z,9.10
2017-12-19T15:39:50.727Z,9.10
2017-12-19T15:42:18.778Z,9.00
2017-12-19T15:44:46.814Z,9.00
2017-12-19T15:47:14.917Z,9.00
2017-12-19T15:49:42.944Z,8.90
2017-12-19T15:52:11.702Z,8.80
2017-12-19T15:54:39.719Z,8.80
2017-12-19T15:57:07.721Z,8.80
2017-12-19T15:59:35.729Z,8.70
2017-12-19T16:02:03.714Z,8.70
2017-12-19T16:04:32.522Z,8.60
2017-12-19T16:07:00.495Z,8.50
2017-12-19T16:09:28.488Z,8.50
2017-12-19T16:11:56.510Z,8.50
2017-12-19T16:14:24.566Z,8.40
2017-12-19T16:16:52.615Z,8.40
2017-12-19T16:19:20.624Z,8.30
2017-12-19T16:21:49.374Z,8.20
2017-12-19T16:24:17.375Z,8.20
2017-12-19T16:26:46.135Z,8.20
2017-12-19T16:29:14.228Z,8.20
2017-12-19T16:31:42.250Z,8.20
2017-12-19T16:34:10.255Z,8.20
2017-12-19T16:36:43.119Z,8.30
2017-12-19T16:39:22.961Z,8.30
2017-12-19T16:42:03.381Z,8.30
2017-12-19T16:44:45.482Z,8.20
2017-12-19T16:47:23.404Z,8.20
2017-12-19T16:50:04.068Z,8.20
2017-12-19T16:52:43.457Z,8.20
2017-12-19T16:55:24.350Z,8.10
2017-12-19T16:58:06.180Z,8.00
2017-12-19T17:03:23.070Z,8.00
2017-12-19T17:06:01.223Z,8.00
2017-12-19T17:08:35.311Z,7.90
2017-12-19T17:11:16.415Z,7.90
2017-12-19T17:13:53.482Z,7.80
2017-12-19T17:16:28.913Z,7.80
2017-12-19T17:19:14.045Z,7.80
2017-12-19T17:21:53.385Z,7.80
2017-12-19T17:24:34.232Z,7.70
2017-12-19T17:27:14.415Z,7.70
2017-12-19T17:29:54.623Z,7.60
2017-12-19T17:32:27.229Z,7.50
2017-12-19T17:35:08.179Z,7.40
2017-12-19T17:37:48.505Z,7.40
2017-12-19T17:40:28.442Z,7.30
2017-12-19T17:43:10.050Z,7.30
2017-12-19T17:45:50.359Z,7.20
2017-12-19T17:48:30.887Z,7.20
2017-12-19T17:51:05.422Z,7.20
2017-12-19T17:53:44.895Z,7.10
2017-12-19T17:56:25.717Z,7.10
2017-12-19T17:58:58.265Z,7.10
2017-12-19T18:01:38.292Z,7.10
2017-12-19T18:04:06.847Z,7.00
2017-12-19T18:06:48.040Z,7.00
2017-12-19T18:09:29.559Z,7.00
2017-12-19T18:12:10.169Z,6.90
2017-12-19T18:14:38.197Z,6.90
2017-12-19T18:17:06.197Z,6.90
2017-12-19T18:19:34.936Z,6.90
2017-12-19T18:22:02.935Z,6.80
2017-12-19T18:24:30.970Z,6.90
2017-12-19T18:26:58.976Z,6.90
2017-12-19T18:29:26.955Z,6.90
2017-12-19T18:31:55.708Z,6.80
2017-12-19T18:34:23.717Z,6.80
2017-12-19T18:36:52.511Z,6.80
2017-12-19T18:39:21.271Z,6.80
2017-12-19T18:42:02.472Z,6.80
2017-12-19T18:44:44.583Z,6.80
2017-12-19T18:47:25.932Z,6.80
2017-12-19T18:50:04.269Z,6.70
2017-12-19T18:52:38.388Z,6.70
2017-12-19T18:55:20.191Z,6.60
2017-12-19T18:58:01.053Z,6.60
2017-12-19T19:00:43.036Z,6.60
2017-12-19T19:03:24.424Z,6.60
2017-12-19T19:06:06.375Z,6.60
2017-12-19T19:08:47.083Z,6.60
2017-12-19T19:11:27.907Z,6.50
2017-12-19T19:13:55.906Z,6.50
2017-12-19T19:16:23.994Z,6.50
2017-12-19T19:19:05.765Z,6.50
2017-12-19T19:21:48.076Z,6.40
2017-12-19T19:24:30.555Z,6.40
2017-12-19T19:27:01.350Z,6.30
2017-12-19T19:29:30.414Z,6.20
2017-12-19T19:31:59.903Z,6.20
2017-12-19T19:34:28.386Z,6.20
2017-12-19T19:36:56.373Z,6.10
2017-12-19T19:39:24.351Z,6.10
2017-12-19T19:41:53.377Z,6.10
2017-12-19T19:44:21.471Z,6.10
2017-12-19T19:47:02.976Z,6.10
2017-12-19T19:49:31.771Z,6.00
2017-12-19T19:51:59.852Z,6.00
2017-12-19T19:54:27.947Z,6.00
2017-12-19T19:57:00.120Z,5.90
2017-12-19T19:59:28.867Z,5.90
2017-12-19T20:01:57.135Z,5.90
2017-12-19T20:04:25.158Z,5.90
2017-12-19T20:06:53.939Z,5.80
2017-12-19T20:09:22.966Z,5.80
2017-12-19T20:11:51.285Z,5.80
2017-12-19T20:14:19.915Z,5.80
2017-12-19T20:16:48.095Z,5.80
2017-12-19T20:19:17.056Z,5.70
2017-12-19T20:21:45.054Z,5.70
2017-12-19T20:24:13.716Z,5.70
2017-12-19T20:26:43.406Z,5.70
2017-12-19T20:29:11.442Z,5.70
2017-12-19T20:31:39.507Z,5.70
2017-12-19T20:34:07.514Z,5.60
2017-12-19T20:36:35.502Z,5.60
2017-12-19T20:39:03.623Z,5.60
2017-12-19T20:41:31.739Z,5.50
2017-12-19T20:43:59.754Z,5.50
2017-12-19T20:46:27.749Z,5.50
2017-12-19T20:48:56.635Z,5.50
2017-12-19T20:51:24.646Z,5.40
2017-12-19T20:53:52.667Z,5.50
2017-12-19T20:56:20.672Z,5.40
2017-12-19T20:58:48.735Z,5.40
2017-12-19T21:01:16.750Z,5.40
2017-12-19T21:03:45.530Z,5.40
2017-12-19T21:06:14.982Z,5.50
2017-12-19T21:08:42.967Z,5.40
2017-12-19T21:11:10.966Z,5.50
2017-12-19T21:13:38.955Z,5.50
2017-12-19T21:16:07.729Z,5.50
2017-12-19T21:18:36.485Z,5.50
2017-12-19T21:21:04.493Z,5.50
2017-12-19T21:23:34.165Z,5.50
2017-12-19T21:26:02.137Z,5.40
2017-12-19T21:28:30.659Z,5.50
2017-12-19T21:30:59.474Z,5.50
2017-12-19T21:33:27.483Z,5.50
2017-12-19T21:35:55.476Z,5.50
2017-12-19T21:38:23.439Z,5.50
2017-12-19T21:40:51.445Z,5.50
2017-12-19T21:43:19.428Z,5.50
2017-12-19T21:45:47.419Z,5.50
2017-12-19T21:48:15.395Z,5.50
2017-12-19T21:50:43.386Z,5.50
2017-12-19T21:53:11.523Z,5.50
2017-12-19T21:55:39.496Z,5.50
2017-12-19T21:58:07.484Z,5.60
2017-12-19T22:00:35.509Z,5.60
2017-12-19T22:03:03.511Z,5.60
2017-12-19T22:05:31.878Z,5.60
2017-12-19T22:07:59.862Z,5.60
2017-12-19T22:10:27.904Z,5.60
2017-12-19T22:12:55.915Z,5.60
2017-12-19T22:15:23.917Z,5.60
2017-12-19T22:17:52.655Z,5.60
2017-12-19T22:20:21.546Z,5.60
2017-12-19T22:22:49.525Z,5.60
2017-12-19T22:25:17.530Z,5.60
2017-12-19T22:27:46.299Z,5.60
2017-12-19T22:30:14.359Z,5.60
2017-12-19T22:32:42.991Z,5.60
2017-12-19T22:35:10.957Z,5.50
2017-12-19T22:37:39.722Z,5.50
2017-12-19T22:40:07.800Z,5.50
2017-12-19T22:42:36.549Z,5.50
2017-12-19T22:45:04.567Z,5.50
2017-12-19T22:47:34.214Z,5.60
2017-12-19T22:50:02.252Z,5.60
2017-12-19T22:52:31.099Z,5.70
2017-12-19T22:54:59.070Z,5.70
2017-12-19T22:57:27.053Z,5.70
2017-12-19T22:59:55.826Z,5.70
2017-12-19T23:02:23.799Z,5.70
2017-12-19T23:04:51.786Z,5.60
2017-12-19T23:07:19.770Z,5.60
2017-12-19T23:09:48.514Z,5.60
2017-12-19T23:12:17.320Z,5.60
2017-12-19T23:14:45.291Z,5.70
2017-12-19T23:17:13.278Z,5.70
2017-12-19T23:19:41.307Z,5.70
2017-12-19T23:22:09.306Z,5.80
2017-12-19T23:24:38.394Z,5.90
2017-12-19T23:27:06.436Z,5.90
2017-12-19T23:29:34.436Z,5.90
2017-12-19T23:32:02.438Z,5.90
2017-12-19T23:34:31.211Z,5.90
2017-12-19T23:36:59.226Z,5.90
2017-12-19T23:39:27.199Z,5.90
2017-12-19T23:41:55.201Z,5.90
2017-12-19T23:44:23.196Z,5.80
2017-12-19T23:46:51.982Z,5.80
2017-12-19T23:49:20.767Z,5.80
2017-12-19T23:51:48.784Z,5.80
2017-12-19T23:54:16.763Z,5.80
2017-12-19T23:56:44.751Z,5.80
2017-12-19T23:59:12.822Z,5.80
